Terminal Aerodrome Forecast
Issued by NWS Charleston, WV

Current Version | Previous Version | Graphics & Text | Print | Product List | Glossary On
Versions: 1 2 3 4 5 6 7 8 9 10 11 12 13 14 15 16 17 18 19 20 21 22 23 24 25 26 27 28
000
FTUS41 KRLX 010857 AAB
TAFEKN
TAF AMD
KEKN 010857Z 0109/0206 27003KT 6SM BR SCT008 OVC012
      TEMPO 0111/0114 BKN008
     FM011500 29004KT 4SM BR OVC010
     FM011900 VRB03KT 4SM SHRA BR VCTS OVC010CB
     FM012200 VRB03KT 3SM SHRA BR OVC010
     FM020300 VRB03KT 2SM SHRA BR OVC008=

USA.gov is the U.S. government's official web portal to all federal, state and local government web resources and services.